createdAt,value
2023-03-04T00:00:02.262Z,102579.50
2023-03-04T00:05:14.701Z,102583.09
2023-03-04T00:10:18.924Z,102580.41
2023-03-04T00:15:22.623Z,102580.25
2023-03-04T00:20:27.787Z,102570.47
2023-03-04T00:25:31.604Z,102575.00
2023-03-04T00:30:35.384Z,102574.72
2023-03-04T00:35:42.042Z,102574.72
2023-03-04T00:40:45.740Z,102577.03
2023-03-04T00:45:50.282Z,102575.34
2023-03-04T00:50:55.421Z,102571.63
2023-03-04T00:55:59.284Z,102571.69
2023-03-04T01:01:03.034Z,102575.13
2023-03-04T01:06:08.512Z,102579.00
2023-03-04T01:11:12.343Z,102578.13
2023-03-04T01:16:16.146Z,102580.84
2023-03-04T01:21:21.246Z,102584.16
2023-03-04T01:26:25.026Z,102578.59
2023-03-04T01:31:29.843Z,102576.97
2023-03-04T01:36:34.924Z,102575.41
2023-03-04T01:41:38.707Z,102569.72
2023-03-04T01:46:44.996Z,102567.16
2023-03-04T01:51:52.521Z,102562.66
2023-03-04T01:57:00.191Z,102550.44
2023-03-04T02:02:04.203Z,102541.91
2023-03-04T02:07:10.050Z,102533.31
2023-03-04T02:12:14.412Z,102528.28
2023-03-04T02:17:18.375Z,102525.59
2023-03-04T02:22:23.733Z,102517.25
2023-03-04T02:27:28.845Z,102521.37
2023-03-04T02:32:32.829Z,102522.13
2023-03-04T02:37:36.755Z,102519.91
2023-03-04T02:42:44.871Z,102514.78
2023-03-04T02:47:48.761Z,102510.53
2023-03-04T02:52:53.633Z,102515.66
2023-03-04T02:57:58.974Z,102506.81
2023-03-04T03:03:02.969Z,102498.47
2023-03-04T03:08:07.642Z,102501.03
2023-03-04T03:13:13.036Z,102486.41
2023-03-04T03:18:17.515Z,102492.53
2023-03-04T03:23:21.308Z,102490.91
2023-03-04T03:28:26.526Z,102493.31
2023-03-04T03:33:30.361Z,102489.88
2023-03-04T03:38:34.318Z,102487.28
2023-03-04T03:43:39.379Z,102480.34
2023-03-04T03:48:43.096Z,102477.34
2023-03-04T03:53:46.887Z,102479.81
2023-03-04T03:58:52.027Z,102485.59
2023-03-04T04:03:55.763Z,102482.13
2023-03-04T04:08:59.623Z,102483.66
2023-03-04T04:14:04.684Z,102482.47
2023-03-04T04:19:08.383Z,102487.31
2023-03-04T04:24:12.189Z,102484.72
2023-03-04T04:29:18.509Z,102483.56
2023-03-04T04:34:22.196Z,102485.38
2023-03-04T04:39:25.833Z,102488.81
2023-03-04T04:44:30.824Z,102488.09
2023-03-04T04:49:34.482Z,102484.72
2023-03-04T04:54:38.232Z,102495.19
2023-03-04T04:59:43.265Z,102495.78
2023-03-04T05:04:46.928Z,102496.09
2023-03-04T05:09:50.633Z,102497.44
2023-03-04T05:14:55.641Z,102495.00
2023-03-04T05:19:59.376Z,102491.28
2023-03-04T05:25:03.170Z,102488.81
2023-03-04T05:30:10.128Z,102490.97
2023-03-04T05:35:13.860Z,102490.09
2023-03-04T05:40:17.959Z,102490.25
2023-03-04T05:45:22.999Z,102503.19
2023-03-04T05:50:27.115Z,102498.97
2023-03-04T05:55:31.792Z,102504.72
2023-03-04T06:00:36.808Z,102505.66
2023-03-04T06:05:40.490Z,102508.84
2023-03-04T06:10:44.270Z,102505.34
2023-03-04T06:15:54.375Z,102510.38
2023-03-04T06:20:59.465Z,102513.56
2023-03-04T06:26:03.312Z,102503.12
2023-03-04T06:31:08.561Z,102500.56
2023-03-04T06:36:12.295Z,102508.28
2023-03-04T06:41:16.223Z,102498.63
2023-03-04T06:46:21.407Z,102509.16
2023-03-04T06:51:25.329Z,102515.97
2023-03-04T06:56:29.212Z,102519.31
2023-03-04T07:01:34.781Z,102510.22
2023-03-04T07:06:38.498Z,102513.69
2023-03-04T07:11:42.479Z,102519.09
2023-03-04T07:16:47.534Z,102519.09
2023-03-04T07:21:51.292Z,102523.62
2023-03-04T07:26:55.018Z,102533.72
2023-03-04T07:32:00.120Z,102537.28
2023-03-04T07:37:04.517Z,102542.56
2023-03-04T07:42:08.416Z,102549.53
2023-03-04T07:47:16.696Z,102557.50
2023-03-04T07:52:20.460Z,102560.06
2023-03-04T07:57:24.185Z,102571.38
2023-03-04T08:02:29.247Z,102565.47
2023-03-04T08:07:33.097Z,102576.00
2023-03-04T08:12:37.490Z,102567.16
2023-03-04T08:17:42.549Z,102566.56
2023-03-04T08:22:46.229Z,102573.91
2023-03-04T08:27:49.934Z,102577.19
2023-03-04T08:32:55.082Z,102580.28
2023-03-04T08:38:01.370Z,102575.09
2023-03-04T08:43:06.072Z,102575.78
2023-03-04T08:48:12.589Z,102576.59
2023-03-04T08:53:17.717Z,102574.69
2023-03-04T08:58:21.816Z,102567.78
2023-03-04T09:03:27.437Z,102562.34
2023-03-04T09:08:32.194Z,102574.22
2023-03-04T09:13:35.943Z,102565.72
2023-03-04T09:18:42.034Z,102557.06
2023-03-04T09:23:45.809Z,102551.63
2023-03-04T09:28:52.053Z,102544.53
2023-03-04T09:33:58.366Z,102546.69
2023-03-04T09:39:02.264Z,102555.03
2023-03-04T09:44:13.407Z,102539.81
2023-03-04T09:49:20.313Z,102534.47
2023-03-04T09:54:33.867Z,102536.66
2023-03-04T09:59:44.260Z,102542.63
2023-03-04T10:04:52.536Z,102549.84
2023-03-04T10:10:01.868Z,102544.53
2023-03-04T10:15:08.741Z,102553.44
2023-03-04T10:20:20.674Z,102550.97
2023-03-04T10:25:27.198Z,102551.78
2023-03-04T10:30:42.670Z,102549.47
2023-03-04T10:35:52.040Z,102552.75
2023-03-04T10:40:55.912Z,102548.53
2023-03-04T10:46:01.300Z,102547.25
2023-03-04T10:51:21.125Z,102539.44
2023-03-04T10:56:37.312Z,102530.75
2023-03-04T11:01:41.563Z,102525.37
2023-03-04T11:06:46.766Z,102527.06
2023-03-04T11:11:52.648Z,102526.78
2023-03-04T11:16:59.030Z,102513.66
2023-03-04T11:22:04.691Z,102502.84
2023-03-04T11:27:16.493Z,102491.63
2023-03-04T11:32:24.948Z,102485.75
2023-03-04T11:37:32.812Z,102476.19
2023-03-04T11:42:42.519Z,102489.09
2023-03-04T11:47:59.241Z,102489.19
2023-03-04T11:53:45.761Z,102483.31
2023-03-04T11:59:13.228Z,102477.16
2023-03-04T12:04:40.750Z,102464.13
2023-03-04T12:09:56.841Z,102460.75
2023-03-04T12:15:14.516Z,102446.63
2023-03-04T12:20:40.417Z,102442.25
2023-03-04T12:25:56.212Z,102435.84
2023-03-04T12:31:12.152Z,102429.06
2023-03-04T12:36:21.856Z,102418.81
2023-03-04T12:41:36.162Z,102411.88
2023-03-04T12:46:54.395Z,102401.09
2023-03-04T12:52:07.998Z,102394.06
2023-03-04T12:57:15.608Z,102396.44
2023-03-04T13:02:35.324Z,102388.06
2023-03-04T13:07:48.626Z,102380.75
2023-03-04T13:12:55.010Z,102372.13
2023-03-04T13:18:00.227Z,102368.19
2023-03-04T13:23:18.037Z,102372.91
2023-03-04T13:28:29.112Z,102365.28
2023-03-04T13:33:53.180Z,102369.66
2023-03-04T13:39:01.772Z,102363.13
2023-03-04T13:44:34.939Z,102356.38
2023-03-04T13:49:38.757Z,102356.03
2023-03-04T13:54:42.467Z,102351.56
2023-03-04T13:59:50.252Z,102351.69
2023-03-04T14:04:59.598Z,102350.78
2023-03-04T14:10:07.471Z,102351.13
2023-03-04T14:15:24.186Z,102354.25
2023-03-04T14:20:30.108Z,102344.94
2023-03-04T14:25:36.991Z,102338.06
2023-03-04T14:30:44.557Z,102342.19
2023-03-04T14:35:50.177Z,102333.84
2023-03-04T14:40:57.225Z,102328.47
2023-03-04T14:46:04.230Z,102340.41
2023-03-04T14:51:07.966Z,102334.22
2023-03-04T14:56:11.937Z,102310.03
2023-03-04T15:01:20.384Z,102310.16
2023-03-04T15:06:25.168Z,102303.56
2023-03-04T15:11:31.896Z,102308.41
2023-03-04T15:16:55.899Z,102297.13
2023-03-04T15:22:06.998Z,102288.53
2023-03-04T15:27:13.547Z,102285.09
2023-03-04T15:32:19.134Z,102284.22
2023-03-04T15:37:25.773Z,102278.50
2023-03-04T15:42:29.714Z,102278.63
2023-03-04T15:47:36.002Z,102284.91
2023-03-04T15:52:39.992Z,102284.81
2023-03-04T15:57:45.628Z,102281.00
2023-03-04T16:02:50.898Z,102273.13
2023-03-04T16:07:54.788Z,102268.31
2023-03-04T16:12:58.829Z,102267.41
2023-03-04T16:18:04.139Z,102269.78
2023-03-04T16:23:13.389Z,102271.25
2023-03-04T16:28:17.216Z,102265.06
2023-03-04T16:33:22.453Z,102272.69
2023-03-04T16:38:28.278Z,102264.37
2023-03-04T16:43:32.665Z,102268.34
2023-03-04T16:48:37.774Z,102265.06
2023-03-04T16:53:42.829Z,102268.09
2023-03-04T16:58:47.777Z,102274.31
2023-03-04T17:03:54.111Z,102272.28
2023-03-04T17:08:57.805Z,102277.50
2023-03-04T17:14:01.601Z,102274.94
2023-03-04T17:19:06.752Z,102282.78
2023-03-04T17:24:11.892Z,102281.03
2023-03-04T17:29:15.702Z,102289.81
2023-03-04T17:34:20.833Z,102286.50
2023-03-04T17:39:24.943Z,102299.66
2023-03-04T17:44:28.721Z,102291.59
2023-03-04T17:49:34.169Z,102304.59
2023-03-04T17:54:38.035Z,102310.41
2023-03-04T17:59:41.901Z,102312.38
2023-03-04T18:04:48.688Z,102306.62
2023-03-04T18:09:52.475Z,102306.91
2023-03-04T18:14:56.389Z,102310.78
2023-03-04T18:20:02.002Z,102310.78
2023-03-04T18:25:06.600Z,102311.56
2023-03-04T18:30:12.612Z,102315.81
2023-03-04T18:35:19.488Z,102311.19
2023-03-04T18:40:23.336Z,102314.69
2023-03-04T18:45:27.702Z,102310.19
2023-03-04T18:50:32.818Z,102304.28
2023-03-04T18:55:36.624Z,102308.41
2023-03-04T19:00:40.352Z,102307.63
2023-03-04T19:05:45.560Z,102306.50
2023-03-04T19:10:49.254Z,102309.72
2023-03-04T19:15:54.492Z,102313.84
2023-03-04T19:21:03.617Z,102300.59
2023-03-04T19:26:09.303Z,102300.87
2023-03-04T19:31:13.376Z,102292.62
2023-03-04T19:36:18.560Z,102299.22
2023-03-04T19:41:22.611Z,102300.09
2023-03-04T19:46:27.420Z,102296.50
2023-03-04T19:51:33.200Z,102298.97
2023-03-04T19:56:37.261Z,102290.97
2023-03-04T20:01:42.456Z,102301.91
2023-03-04T20:06:49.584Z,102294.63
2023-03-04T20:12:00.469Z,102298.72
2023-03-04T20:17:07.077Z,102290.78
2023-03-04T20:22:13.404Z,102296.94
2023-03-04T20:27:17.470Z,102295.78
2023-03-04T20:32:21.331Z,102310.31
2023-03-04T20:37:26.475Z,102305.81
2023-03-04T20:42:30.253Z,102298.75
2023-03-04T20:47:34.088Z,102305.44
2023-03-04T20:52:39.247Z,102310.19
2023-03-04T20:57:43.094Z,102308.25
2023-03-04T21:02:46.949Z,102304.66
2023-03-04T21:07:52.132Z,102299.91
2023-03-04T21:12:55.904Z,102294.28
2023-03-04T21:17:59.627Z,102295.28
2023-03-04T21:23:04.961Z,102288.34
2023-03-04T21:28:08.790Z,102291.72
2023-03-04T21:33:17.825Z,102295.16
2023-03-04T21:38:22.970Z,102282.69
2023-03-04T21:43:26.686Z,102271.13
2023-03-04T21:48:30.433Z,102276.81
2023-03-04T21:53:36.544Z,102270.63
2023-03-04T21:58:42.208Z,102263.56
2023-03-04T22:03:47.285Z,102261.63
2023-03-04T22:08:53.476Z,102266.63
2023-03-04T22:13:58.544Z,102259.56
2023-03-04T22:19:02.304Z,102257.66
2023-03-04T22:24:08.108Z,102260.06
2023-03-04T22:29:11.797Z,102256.75
2023-03-04T22:34:16.810Z,102261.63
2023-03-04T22:39:23.111Z,102267.28
2023-03-04T22:44:27.148Z,102251.47
2023-03-04T22:49:30.938Z,102251.84
2023-03-04T22:54:36.010Z,102247.69
2023-03-04T22:59:39.694Z,102245.91
2023-03-04T23:04:43.443Z,102237.94
2023-03-04T23:09:48.523Z,102243.34
2023-03-04T23:14:52.265Z,102225.38
2023-03-04T23:19:56.094Z,102227.94
2023-03-04T23:25:01.621Z,102225.72
2023-03-04T23:30:06.511Z,102225.63
2023-03-04T23:35:10.349Z,102216.37
2023-03-04T23:40:15.597Z,102224.84
2023-03-04T23:45:19.476Z,102217.91
2023-03-04T23:50:23.394Z,102208.16
2023-03-04T23:55:29.321Z,102209.69
